createdAt,value
2022-12-23T00:01:00.008Z,3.58
2022-12-23T00:02:02.698Z,3.42
2022-12-23T00:03:05.758Z,3.50
2022-12-23T00:04:08.841Z,3.57
2022-12-23T00:05:11.405Z,3.65
2022-12-23T00:06:14.079Z,3.58
2022-12-23T00:07:16.744Z,3.57
2022-12-23T00:08:19.597Z,3.23
2022-12-23T00:09:30.584Z,3.30
2022-12-23T00:10:33.163Z,2.91
2022-12-23T00:11:35.715Z,3.24
2022-12-23T00:12:38.385Z,3.02
2022-12-23T00:13:41.160Z,3.05
2022-12-23T00:14:43.756Z,3.41
2022-12-23T00:15:46.308Z,2.82
2022-12-23T00:16:48.947Z,2.94
2022-12-23T00:17:51.547Z,2.65
2022-12-23T00:18:54.309Z,3.17
2022-12-23T00:19:57.408Z,2.74
2022-12-23T00:21:04.768Z,2.83
2022-12-23T00:22:04.053Z,2.34
2022-12-23T00:23:06.651Z,2.50
2022-12-23T00:24:09.292Z,2.52
2022-12-23T00:25:12.283Z,2.55
2022-12-23T00:26:14.834Z,2.44
2022-12-23T00:27:17.707Z,2.66
2022-12-23T00:28:20.482Z,2.57
2022-12-23T00:29:23.156Z,2.35
2022-12-23T00:30:26.133Z,2.35
2022-12-23T00:31:28.898Z,2.28
2022-12-23T00:32:31.578Z,2.38
2022-12-23T00:33:34.145Z,2.41
2022-12-23T00:34:37.024Z,2.26
2022-12-23T00:35:39.708Z,2.55
2022-12-23T00:36:42.687Z,2.32
2022-12-23T00:37:45.431Z,2.41
2022-12-23T00:38:48.115Z,2.57
2022-12-23T00:39:54.968Z,2.56
2022-12-23T00:40:55.295Z,2.58
2022-12-23T00:41:57.851Z,2.49
2022-12-23T00:43:00.648Z,2.72
2022-12-23T00:44:03.314Z,2.67
2022-12-23T00:45:06.168Z,2.72
2022-12-23T00:46:08.937Z,2.62
2022-12-23T00:47:11.815Z,2.73
2022-12-23T00:48:14.695Z,2.39
2022-12-23T00:49:17.363Z,2.73
2022-12-23T00:50:26.802Z,2.05
2022-12-23T00:51:29.671Z,2.39
2022-12-23T00:52:32.535Z,2.57
2022-12-23T00:53:35.411Z,2.90
2022-12-23T00:54:38.083Z,2.55
2022-12-23T00:55:40.652Z,2.49
2022-12-23T00:56:43.628Z,2.45
2022-12-23T00:57:46.502Z,2.85
2022-12-23T00:58:49.387Z,2.73
2022-12-23T00:59:52.051Z,2.62
2022-12-23T01:00:54.775Z,2.91
2022-12-23T01:01:57.679Z,2.67
2022-12-23T01:03:00.530Z,2.96
2022-12-23T01:04:03.251Z,2.68
2022-12-23T01:05:05.801Z,2.62
2022-12-23T01:06:08.285Z,2.71
2022-12-23T01:07:10.945Z,3.25
2022-12-23T01:08:13.506Z,2.66
2022-12-23T01:09:16.076Z,2.70
2022-12-23T01:10:18.956Z,2.99
2022-12-23T01:11:21.626Z,2.76
2022-12-23T01:12:24.312Z,2.62
2022-12-23T01:13:26.959Z,2.77
2022-12-23T01:14:29.843Z,3.05
2022-12-23T01:15:32.404Z,2.82
2022-12-23T01:16:35.155Z,2.98
2022-12-23T01:17:37.941Z,2.57
2022-12-23T01:18:40.723Z,2.76
2022-12-23T01:19:43.507Z,2.72
2022-12-23T01:20:46.383Z,2.60
2022-12-23T01:21:49.041Z,2.60
2022-12-23T01:22:52.113Z,2.56
2022-12-23T01:23:54.781Z,3.22
2022-12-23T01:24:57.668Z,3.04
2022-12-23T01:26:00.243Z,2.98
2022-12-23T01:27:03.099Z,3.02
2022-12-23T01:28:06.084Z,3.05
2022-12-23T01:29:08.952Z,3.31
2022-12-23T01:30:11.845Z,3.35
2022-12-23T01:31:14.767Z,3.12
2022-12-23T01:32:17.650Z,2.86
2022-12-23T01:33:20.242Z,3.04
2022-12-23T01:34:23.124Z,2.92
2022-12-23T01:35:25.795Z,2.71
2022-12-23T01:36:28.566Z,2.83
2022-12-23T01:37:31.230Z,2.59
2022-12-23T01:38:34.013Z,2.52
2022-12-23T01:39:36.587Z,2.99
2022-12-23T01:40:39.244Z,2.99
2022-12-23T01:41:41.914Z,2.85
2022-12-23T01:42:44.582Z,2.96
2022-12-23T01:43:47.267Z,2.99
2022-12-23T01:44:50.064Z,2.95
2022-12-23T01:45:52.766Z,2.78
2022-12-23T01:46:55.362Z,2.95
2022-12-23T01:47:58.034Z,2.77
2022-12-23T01:49:00.624Z,3.19
2022-12-23T01:50:03.267Z,3.26
2022-12-23T01:51:05.950Z,2.95
2022-12-23T01:52:08.506Z,3.13
2022-12-23T01:53:11.174Z,2.89
2022-12-23T01:54:13.851Z,3.42
2022-12-23T01:55:16.433Z,3.24
2022-12-23T01:56:18.998Z,3.02
2022-12-23T01:57:27.898Z,3.12
2022-12-23T01:58:30.469Z,3.02
2022-12-23T01:59:33.043Z,3.00
2022-12-23T02:00:35.601Z,3.09
2022-12-23T02:01:38.682Z,3.02
2022-12-23T02:02:41.783Z,3.05
2022-12-23T02:03:44.948Z,3.02
2022-12-23T02:04:48.222Z,2.90
2022-12-23T02:05:51.225Z,2.89
2022-12-23T02:06:53.971Z,2.91
2022-12-23T02:07:56.865Z,2.71
2022-12-23T02:08:59.624Z,2.84
2022-12-23T02:10:02.496Z,2.98
2022-12-23T02:11:05.278Z,3.14
2022-12-23T02:12:08.045Z,2.97
2022-12-23T02:13:10.928Z,2.80
2022-12-23T02:14:13.794Z,2.73
2022-12-23T02:15:16.769Z,2.91
2022-12-23T02:16:19.475Z,2.95
2022-12-23T02:17:22.411Z,2.92
2022-12-23T02:18:25.190Z,3.05
2022-12-23T02:19:28.057Z,2.67
2022-12-23T02:20:30.631Z,3.01
2022-12-23T02:21:33.430Z,2.87
2022-12-23T02:22:36.385Z,2.82
2022-12-23T02:23:39.351Z,2.68
2022-12-23T02:24:42.229Z,2.76
2022-12-23T02:25:45.313Z,2.74
2022-12-23T02:26:48.180Z,2.88
2022-12-23T02:27:51.067Z,3.00
2022-12-23T02:28:53.840Z,3.01
2022-12-23T02:29:56.706Z,3.07
2022-12-23T02:30:59.516Z,2.79
2022-12-23T02:32:02.152Z,3.18
2022-12-23T02:33:05.135Z,3.08
2022-12-23T02:34:07.907Z,2.64
2022-12-23T02:35:10.671Z,2.99
2022-12-23T02:36:13.349Z,2.49
2022-12-23T02:37:16.018Z,2.79
2022-12-23T02:38:18.578Z,2.79
2022-12-23T02:39:21.246Z,2.84
2022-12-23T02:40:23.821Z,2.90
2022-12-23T02:41:26.585Z,2.70
2022-12-23T02:42:29.257Z,3.00
2022-12-23T02:43:31.913Z,2.78
2022-12-23T02:44:34.605Z,2.75
2022-12-23T02:45:37.470Z,2.95
2022-12-23T02:46:40.671Z,2.91
2022-12-23T02:47:43.519Z,2.97
2022-12-23T02:48:46.660Z,2.74
2022-12-23T02:49:49.598Z,2.45
2022-12-23T02:50:52.478Z,2.42
2022-12-23T02:51:55.565Z,2.48
2022-12-23T02:52:58.309Z,2.46
2022-12-23T02:54:01.187Z,2.49
2022-12-23T02:55:03.959Z,2.49
2022-12-23T02:56:06.836Z,2.32
2022-12-23T02:57:10.010Z,2.42
2022-12-23T02:58:12.891Z,2.08
2022-12-23T02:59:15.669Z,2.31
2022-12-23T03:00:18.534Z,2.37
2022-12-23T03:01:21.422Z,2.27
2022-12-23T03:02:24.665Z,2.44
2022-12-23T03:03:27.652Z,2.51
2022-12-23T03:04:41.601Z,2.55
2022-12-23T03:05:44.486Z,2.35
2022-12-23T03:06:47.252Z,2.27
2022-12-23T03:07:50.147Z,2.38
2022-12-23T03:08:52.907Z,2.32
2022-12-23T03:09:55.775Z,2.34
2022-12-23T03:10:58.644Z,2.22
2022-12-23T03:12:01.550Z,2.39
2022-12-23T03:13:04.499Z,2.43
2022-12-23T03:14:07.376Z,2.60
2022-12-23T03:15:10.251Z,2.28
2022-12-23T03:16:13.192Z,2.09
2022-12-23T03:17:16.201Z,2.19
2022-12-23T03:18:19.596Z,2.02
2022-12-23T03:19:22.459Z,2.56
2022-12-23T03:20:25.341Z,2.78
2022-12-23T03:21:28.117Z,2.65
2022-12-23T03:22:30.995Z,2.52
2022-12-23T03:23:34.279Z,2.47
2022-12-23T03:24:37.243Z,2.39
2022-12-23T03:25:40.224Z,2.45
2022-12-23T03:26:43.108Z,2.28
2022-12-23T03:27:45.875Z,2.58
2022-12-23T03:28:48.857Z,2.53
2022-12-23T03:29:51.722Z,2.56
2022-12-23T03:30:54.557Z,2.62
2022-12-23T03:31:57.381Z,2.42
2022-12-23T03:32:59.959Z,2.29
2022-12-23T03:34:02.714Z,2.46
2022-12-23T03:35:05.806Z,2.18
2022-12-23T03:36:08.370Z,2.14
2022-12-23T03:37:11.028Z,2.33
2022-12-23T03:38:13.719Z,2.12
2022-12-23T03:39:16.374Z,2.45
2022-12-23T03:40:19.236Z,2.64
2022-12-23T03:41:22.227Z,2.38
2022-12-23T03:42:25.089Z,2.78
2022-12-23T03:43:28.371Z,2.62
2022-12-23T03:44:31.977Z,2.37
2022-12-23T03:45:40.425Z,2.57
2022-12-23T03:46:40.038Z,2.57
2022-12-23T03:47:42.957Z,2.55
2022-12-23T03:48:45.821Z,2.82
2022-12-23T03:49:49.312Z,2.64
2022-12-23T03:50:52.438Z,2.53
2022-12-23T03:51:55.485Z,2.48
2022-12-23T03:52:58.746Z,2.53
2022-12-23T03:54:01.649Z,2.71
2022-12-23T03:55:04.629Z,2.77
2022-12-23T03:58:14.419Z,2.51
2022-12-23T04:20:15.140Z,2.51
2022-12-23T04:21:17.902Z,2.44
2022-12-23T04:22:20.701Z,2.32
2022-12-23T04:23:23.355Z,2.35
2022-12-23T04:24:25.940Z,2.46
2022-12-23T04:25:28.482Z,2.33
2022-12-23T04:26:31.047Z,2.18
2022-12-23T04:27:34.121Z,2.12
2022-12-23T04:28:37.005Z,2.22
2022-12-23T04:29:39.880Z,2.33
2022-12-23T04:30:43.675Z,2.21
2022-12-23T04:31:47.262Z,2.50
2022-12-23T04:32:50.145Z,2.51
2022-12-23T04:33:52.909Z,2.44
2022-12-23T04:34:55.892Z,2.33
2022-12-23T04:35:59.061Z,2.32
2022-12-23T04:37:02.707Z,2.34
2022-12-23T04:38:06.143Z,2.54
2022-12-23T04:39:09.634Z,2.73
2022-12-23T04:40:12.421Z,2.28
2022-12-23T04:41:15.203Z,2.13
2022-12-23T04:42:18.989Z,2.58
2022-12-23T04:43:22.157Z,2.34
2022-12-23T04:44:25.456Z,2.38
2022-12-23T04:45:28.634Z,2.61
2022-12-23T04:46:32.183Z,2.27
2022-12-23T04:47:35.303Z,2.31
2022-12-23T04:48:38.470Z,2.35
2022-12-23T04:49:41.880Z,2.18
2022-12-23T04:50:44.877Z,2.35
2022-12-23T04:51:47.626Z,2.52
2022-12-23T04:52:50.616Z,2.38
2022-12-23T04:53:53.370Z,2.33
2022-12-23T04:54:56.139Z,2.47
2022-12-23T04:55:59.416Z,2.32
2022-12-23T04:57:02.701Z,2.36
2022-12-23T04:58:06.290Z,2.24
2022-12-23T04:59:09.280Z,2.27
2022-12-23T05:00:12.152Z,2.39
2022-12-23T05:01:15.146Z,2.25
2022-12-23T05:02:18.093Z,2.65
2022-12-23T05:03:21.247Z,2.38
2022-12-23T05:04:24.487Z,2.02
2022-12-23T05:05:27.557Z,2.42
2022-12-23T05:06:30.433Z,2.22
2022-12-23T05:07:33.297Z,2.19
2022-12-23T05:08:36.184Z,2.33
2022-12-23T05:09:39.248Z,2.23
2022-12-23T05:10:42.233Z,2.39
2022-12-23T05:11:44.800Z,2.47
2022-12-23T05:12:47.473Z,2.26
2022-12-23T05:13:50.343Z,2.73
2022-12-23T05:14:52.928Z,2.58
2022-12-23T05:15:56.092Z,2.55
2022-12-23T05:17:05.207Z,2.52
2022-12-23T05:18:02.870Z,2.49
2022-12-23T05:19:09.245Z,2.79
2022-12-23T05:20:11.792Z,2.66
2022-12-23T05:21:14.458Z,2.61
2022-12-23T05:22:17.328Z,2.46
2022-12-23T05:23:20.318Z,2.55
2022-12-23T05:24:23.291Z,2.64
2022-12-23T05:25:26.474Z,2.58
2022-12-23T05:26:29.753Z,2.95
2022-12-23T05:27:32.540Z,2.77
2022-12-23T05:28:35.308Z,2.84
2022-12-23T05:29:38.568Z,3.14
2022-12-23T05:30:41.565Z,2.82
2022-12-23T05:31:44.287Z,2.74
2022-12-23T05:32:47.099Z,2.82
2022-12-23T05:33:50.122Z,3.05
2022-12-23T05:34:53.162Z,3.09
2022-12-23T05:35:56.164Z,3.25
2022-12-23T05:36:58.914Z,2.90
2022-12-23T05:38:01.681Z,3.37
2022-12-23T05:39:04.561Z,3.00
2022-12-23T05:40:07.753Z,2.96
2022-12-23T05:41:11.026Z,3.03
2022-12-23T05:42:14.103Z,3.09
2022-12-23T05:43:17.386Z,2.89
2022-12-23T05:44:20.376Z,2.54
2022-12-23T05:45:23.660Z,2.73
2022-12-23T05:46:27.397Z,2.91
2022-12-23T05:47:30.715Z,2.74
2022-12-23T05:48:33.895Z,2.63
2022-12-23T05:49:36.692Z,2.68
2022-12-23T05:50:40.055Z,3.02
2022-12-23T05:51:43.055Z,2.75
2022-12-23T05:52:45.945Z,2.78
2022-12-23T05:53:48.704Z,2.60
2022-12-23T05:54:51.764Z,2.58
2022-12-23T05:55:55.148Z,2.61
2022-12-23T05:56:58.154Z,2.82
2022-12-23T05:58:01.422Z,3.15
2022-12-23T05:59:04.614Z,2.64
2022-12-23T06:00:07.281Z,2.62
2022-12-23T06:01:10.644Z,2.80
2022-12-23T06:02:13.679Z,2.68
2022-12-23T06:03:17.011Z,2.68
2022-12-23T06:04:20.026Z,2.75
2022-12-23T06:05:22.668Z,2.70
2022-12-23T06:06:25.423Z,2.72
2022-12-23T06:07:28.128Z,2.95
2022-12-23T06:08:30.871Z,2.83
2022-12-23T06:09:33.972Z,2.81
2022-12-23T06:10:37.233Z,2.70
2022-12-23T06:11:40.217Z,2.60
2022-12-23T06:12:44.120Z,2.55
2022-12-23T06:13:47.100Z,2.52
2022-12-23T06:14:50.061Z,2.72
2022-12-23T06:15:53.063Z,2.55
2022-12-23T06:16:56.084Z,2.54
2022-12-23T06:17:59.093Z,2.53
2022-12-23T06:19:01.898Z,2.62
2022-12-23T06:20:04.593Z,2.64
2022-12-23T06:21:07.341Z,2.53
2022-12-23T06:22:10.801Z,2.58
2022-12-23T06:23:13.792Z,2.62
2022-12-23T06:24:16.667Z,2.33
2022-12-23T06:25:19.834Z,2.52
2022-12-23T06:26:30.101Z,2.50
2022-12-23T06:27:33.472Z,2.76
2022-12-23T06:28:36.264Z,2.58
2022-12-23T06:29:39.056Z,2.42
2022-12-23T06:30:41.899Z,2.44
2022-12-23T06:31:44.873Z,2.85
2022-12-23T06:32:47.661Z,2.56
2022-12-23T06:33:50.421Z,2.49
2022-12-23T06:34:53.469Z,2.60
2022-12-23T06:35:56.572Z,2.57
2022-12-23T06:36:59.672Z,2.80
2022-12-23T06:38:03.885Z,2.78
2022-12-23T06:39:07.240Z,2.55
2022-12-23T06:40:13.293Z,2.50
2022-12-23T06:41:16.185Z,2.61
2022-12-23T06:42:19.141Z,2.65
2022-12-23T06:43:22.338Z,2.41
2022-12-23T06:44:25.182Z,2.51
2022-12-23T06:45:27.882Z,2.58
2022-12-23T06:46:30.969Z,2.44
2022-12-23T06:47:34.342Z,2.48
2022-12-23T06:48:37.348Z,2.72
2022-12-23T06:49:40.102Z,2.69
2022-12-23T06:50:43.072Z,2.68
2022-12-23T06:51:46.238Z,2.62
2022-12-23T06:52:48.730Z,2.49
2022-12-23T06:53:51.602Z,2.61
2022-12-23T06:54:54.260Z,2.37
2022-12-23T06:55:56.831Z,2.34
2022-12-23T06:56:59.505Z,2.24
2022-12-23T06:58:02.363Z,2.42
2022-12-23T06:59:05.267Z,2.56
2022-12-23T07:00:08.008Z,2.53
2022-12-23T07:01:10.736Z,2.67
2022-12-23T07:02:13.522Z,2.67
2022-12-23T07:03:16.555Z,2.48
2022-12-23T07:04:19.610Z,2.48
2022-12-23T07:05:22.300Z,2.39
2022-12-23T07:06:25.169Z,2.68
2022-12-23T07:07:27.926Z,2.58
2022-12-23T07:08:30.746Z,2.59
2022-12-23T07:09:33.706Z,2.57
2022-12-23T07:10:36.269Z,2.85
2022-12-23T07:11:38.934Z,2.89
2022-12-23T07:12:46.012Z,2.81
2022-12-23T07:13:45.809Z,2.76
2022-12-23T07:14:48.781Z,2.54
2022-12-23T07:15:51.743Z,2.60
2022-12-23T07:16:54.879Z,2.69
2022-12-23T07:17:57.899Z,2.55
2022-12-23T07:19:00.777Z,2.28
2022-12-23T07:20:04.162Z,2.85
2022-12-23T07:21:14.034Z,2.55
2022-12-23T07:22:11.550Z,2.59
2022-12-23T07:23:14.472Z,2.43
2022-12-23T07:24:17.505Z,2.30
2022-12-23T07:25:20.824Z,2.88
2022-12-23T07:26:23.864Z,2.50
2022-12-23T07:27:26.672Z,2.43
2022-12-23T07:28:29.618Z,2.55
2022-12-23T07:29:32.617Z,2.72
2022-12-23T07:30:35.602Z,2.52
2022-12-23T07:31:41.102Z,2.02
2022-12-23T07:32:43.165Z,2.39
2022-12-23T07:33:57.332Z,2.64
2022-12-23T07:35:00.283Z,2.57
2022-12-23T07:36:03.070Z,2.44
2022-12-23T07:37:05.640Z,2.50
2022-12-23T07:38:08.308Z,2.48
2022-12-23T07:39:10.979Z,2.45
2022-12-23T07:40:13.832Z,2.62
2022-12-23T07:41:16.814Z,2.73
2022-12-23T07:42:45.301Z,2.62
2022-12-23T07:43:23.513Z,2.64
2022-12-23T07:44:26.175Z,2.47
2022-12-23T07:45:29.239Z,2.62
2022-12-23T07:46:32.254Z,2.57
2022-12-23T07:47:34.904Z,2.63
2022-12-23T07:48:37.573Z,2.73
2022-12-23T07:49:40.247Z,2.73
2022-12-23T07:50:42.916Z,2.43
2022-12-23T07:51:45.997Z,2.30
2022-12-23T07:52:49.046Z,2.19
2022-12-23T07:53:52.246Z,2.42
2022-12-23T07:54:55.411Z,2.73
2022-12-23T07:55:58.306Z,2.61
2022-12-23T07:57:01.284Z,2.25
2022-12-23T07:58:04.335Z,2.18
2022-12-23T07:59:07.420Z,2.20
2022-12-23T08:00:10.394Z,2.41
2022-12-23T08:01:13.422Z,2.56
2022-12-23T08:02:17.314Z,2.56
2022-12-23T08:03:20.250Z,2.46
2022-12-23T08:04:23.287Z,2.31
2022-12-23T08:05:26.259Z,2.28
2022-12-23T08:06:29.385Z,2.51
2022-12-23T08:07:32.572Z,2.56
2022-12-23T08:08:35.762Z,2.40
2022-12-23T08:09:38.831Z,2.22
2022-12-23T08:10:48.047Z,2.39
2022-12-23T08:11:46.553Z,2.31
2022-12-23T08:12:49.921Z,2.32
2022-12-23T08:13:52.884Z,2.26
2022-12-23T08:14:55.875Z,2.27
2022-12-23T08:15:59.052Z,2.12
2022-12-23T08:17:02.269Z,2.44
2022-12-23T08:18:05.338Z,2.46
2022-12-23T08:19:08.286Z,2.46
2022-12-23T08:20:11.159Z,2.28
2022-12-23T08:21:14.131Z,2.48
2022-12-23T08:22:17.320Z,2.60
2022-12-23T08:23:24.748Z,2.36
2022-12-23T08:24:24.849Z,2.19
2022-12-23T08:25:27.720Z,2.32
2022-12-23T08:26:30.493Z,2.48
2022-12-23T08:27:33.246Z,2.32
2022-12-23T08:28:36.096Z,2.52
2022-12-23T08:29:39.198Z,2.65
2022-12-23T08:30:42.069Z,2.78
2022-12-23T08:31:44.836Z,2.75
2022-12-23T08:32:47.712Z,2.46
2022-12-23T08:33:50.917Z,2.55
2022-12-23T08:34:54.165Z,2.71
2022-12-23T08:35:57.070Z,2.55
2022-12-23T08:37:00.136Z,2.56
2022-12-23T08:38:03.223Z,2.60
2022-12-23T08:39:06.507Z,2.55
2022-12-23T08:40:09.290Z,2.48
2022-12-23T08:41:15.894Z,2.42
2022-12-23T08:42:18.799Z,2.48
2022-12-23T08:43:21.772Z,2.44
2022-12-23T08:44:24.257Z,2.66
2022-12-23T08:45:27.312Z,2.51
2022-12-23T08:46:30.318Z,2.75
2022-12-23T08:47:33.089Z,2.68
2022-12-23T08:48:35.959Z,2.81
2022-12-23T08:49:39.022Z,2.60
2022-12-23T08:50:41.819Z,2.82
2022-12-23T08:51:44.691Z,3.05
2022-12-23T08:52:47.575Z,2.99
2022-12-23T08:53:54.912Z,2.91
2022-12-23T08:54:55.340Z,2.83
2022-12-23T08:55:58.417Z,2.87
2022-12-23T08:57:01.210Z,2.89
2022-12-23T08:58:04.125Z,2.69
2022-12-23T08:59:07.046Z,2.85
2022-12-23T09:00:10.123Z,2.81
2022-12-23T09:01:13.418Z,2.54
2022-12-23T09:02:16.605Z,2.87
2022-12-23T09:03:19.862Z,3.30
2022-12-23T09:04:23.020Z,3.25
2022-12-23T09:05:26.349Z,2.79
2022-12-23T09:06:30.431Z,2.98
2022-12-23T09:07:33.833Z,3.06
2022-12-23T09:08:36.909Z,2.75
2022-12-23T09:09:39.821Z,2.74
2022-12-23T09:10:42.781Z,2.98
2022-12-23T09:11:45.659Z,2.78
2022-12-23T09:12:48.715Z,2.86
2022-12-23T09:13:51.894Z,2.79
2022-12-23T09:14:54.662Z,3.11
2022-12-23T09:15:57.828Z,2.82
2022-12-23T09:17:00.640Z,2.99
2022-12-23T09:18:03.508Z,3.13
2022-12-23T09:19:06.289Z,3.12
2022-12-23T09:20:08.965Z,2.69
2022-12-23T09:21:12.018Z,2.80
2022-12-23T09:22:15.095Z,3.03
2022-12-23T09:23:18.179Z,2.97
2022-12-23T09:24:21.159Z,2.94
2022-12-23T09:25:24.231Z,3.15
2022-12-23T09:26:27.317Z,3.03
2022-12-23T09:27:30.392Z,3.12
2022-12-23T09:28:33.569Z,3.21
2022-12-23T09:29:36.653Z,3.20
2022-12-23T09:30:39.832Z,2.96
2022-12-23T09:31:43.133Z,2.68
2022-12-23T09:32:46.196Z,2.71
2022-12-23T09:33:49.278Z,2.96
2022-12-23T09:34:52.355Z,2.78
2022-12-23T09:35:55.130Z,3.04
2022-12-23T09:36:58.410Z,2.91
2022-12-23T09:38:01.405Z,2.97
2022-12-23T09:39:04.578Z,2.98
2022-12-23T09:40:07.648Z,3.13
2022-12-23T09:41:10.835Z,2.81
2022-12-23T09:42:13.706Z,2.70
2022-12-23T09:43:16.594Z,3.15
2022-12-23T09:44:19.358Z,2.93
2022-12-23T09:45:22.124Z,2.92
2022-12-23T09:46:25.145Z,2.73
2022-12-23T09:47:28.188Z,2.82
2022-12-23T09:48:34.413Z,2.86
2022-12-23T09:49:37.218Z,2.90
2022-12-23T09:50:40.086Z,2.92
2022-12-23T09:51:42.854Z,2.77
2022-12-23T09:52:45.623Z,2.68
2022-12-23T09:53:48.296Z,2.99
2022-12-23T09:54:50.969Z,3.14
2022-12-23T09:55:53.744Z,3.02
2022-12-23T09:56:56.408Z,3.25
2022-12-23T09:57:59.284Z,2.89
2022-12-23T09:59:02.055Z,2.84
2022-12-23T10:00:04.745Z,2.77
2022-12-23T10:01:07.726Z,2.86
2022-12-23T10:02:10.806Z,2.75
2022-12-23T10:03:14.289Z,2.52
2022-12-23T10:04:17.521Z,2.86
2022-12-23T10:05:20.540Z,2.99
2022-12-23T10:06:23.920Z,3.12
2022-12-23T10:07:27.309Z,2.87
2022-12-23T10:08:30.696Z,2.90
2022-12-23T10:09:34.091Z,2.88
2022-12-23T10:10:37.161Z,3.02
2022-12-23T10:11:40.548Z,3.05
2022-12-23T10:12:43.640Z,3.18
2022-12-23T10:13:47.110Z,3.14
2022-12-23T10:14:50.106Z,2.78
2022-12-23T10:15:53.216Z,2.85
2022-12-23T10:16:56.252Z,2.99
2022-12-23T10:17:59.329Z,3.11
2022-12-23T10:19:02.619Z,2.91
2022-12-23T10:20:05.718Z,3.14
2022-12-23T10:21:08.717Z,3.40
2022-12-23T10:22:11.852Z,3.25
2022-12-23T10:23:14.836Z,3.47
2022-12-23T10:24:18.218Z,3.48
2022-12-23T10:25:21.208Z,3.49
2022-12-23T10:26:24.394Z,3.25
2022-12-23T10:27:27.375Z,3.35
2022-12-23T10:28:30.327Z,3.30
2022-12-23T10:29:33.632Z,3.42
2022-12-23T10:31:11.223Z,3.28
2022-12-23T10:31:41.607Z,3.12
2022-12-23T10:32:45.069Z,3.38
2022-12-23T10:33:47.972Z,3.11
2022-12-23T10:34:50.861Z,3.05
2022-12-23T10:35:53.599Z,3.62
2022-12-23T10:36:56.356Z,3.45
2022-12-23T10:37:59.072Z,3.22
2022-12-23T10:39:01.859Z,3.25
2022-12-23T10:40:05.144Z,3.31
2022-12-23T10:41:09.589Z,3.39
2022-12-23T10:42:12.427Z,3.43
2022-12-23T10:43:15.698Z,3.30
2022-12-23T10:44:18.782Z,3.48
2022-12-23T10:45:22.161Z,3.33
2022-12-23T10:46:25.185Z,3.46
2022-12-23T10:47:28.228Z,3.66
2022-12-23T10:48:31.192Z,3.05
2022-12-23T10:49:35.713Z,3.05
2022-12-23T10:50:39.131Z,3.44
2022-12-23T10:51:41.987Z,3.52
2022-12-23T10:52:45.049Z,3.55
2022-12-23T10:53:48.132Z,3.39
2022-12-23T10:54:51.217Z,3.37
2022-12-23T10:56:00.189Z,3.50
2022-12-23T10:57:03.103Z,3.39
2022-12-23T10:58:06.072Z,3.30
2022-12-23T10:59:09.152Z,3.55
2022-12-23T11:00:12.142Z,3.90
2022-12-23T11:01:25.670Z,3.70
2022-12-23T11:02:20.199Z,3.77
2022-12-23T11:03:23.731Z,3.71
2022-12-23T11:04:26.808Z,3.67
2022-12-23T11:05:29.782Z,3.72
2022-12-23T11:06:37.597Z,3.84
2022-12-23T11:07:46.205Z,3.68
2022-12-23T11:08:42.614Z,3.65
2022-12-23T11:09:45.801Z,3.49
2022-12-23T11:10:48.769Z,3.62
2022-12-23T11:11:51.958Z,3.49
2022-12-23T11:12:55.841Z,4.06
2022-12-23T11:13:58.944Z,4.00
2022-12-23T11:15:01.913Z,3.85
2022-12-23T11:16:05.034Z,3.58
2022-12-23T11:17:08.177Z,3.30
2022-12-23T11:18:11.040Z,3.43
2022-12-23T11:19:13.918Z,3.33
2022-12-23T11:20:17.104Z,3.37
2022-12-23T11:21:20.102Z,4.01
2022-12-23T11:22:23.050Z,3.63
2022-12-23T11:23:26.153Z,3.50
2022-12-23T11:24:29.208Z,3.75
2022-12-23T11:25:32.298Z,3.78
2022-12-23T11:26:35.265Z,3.98
2022-12-23T11:27:38.443Z,4.14
2022-12-23T11:28:41.527Z,4.26
2022-12-23T11:29:44.610Z,3.97
2022-12-23T11:30:55.222Z,3.69
2022-12-23T11:31:52.453Z,3.81
2022-12-23T11:32:56.027Z,3.97
2022-12-23T11:33:59.077Z,3.92
2022-12-23T11:35:02.280Z,3.96
2022-12-23T11:36:05.331Z,4.05
2022-12-23T11:37:08.419Z,3.74
2022-12-23T11:38:11.596Z,3.89
2022-12-23T11:39:17.451Z,3.57
2022-12-23T11:40:20.517Z,3.88
2022-12-23T11:41:23.699Z,3.72
2022-12-23T11:42:26.385Z,3.57
2022-12-23T11:43:29.548Z,3.53
2022-12-23T11:44:32.422Z,3.96
2022-12-23T11:45:35.486Z,3.88
2022-12-23T11:46:38.485Z,3.90
2022-12-23T11:47:41.621Z,3.89
2022-12-23T11:48:48.587Z,3.91
2022-12-23T11:49:49.976Z,4.16
2022-12-23T11:50:52.957Z,4.16
2022-12-23T11:51:55.927Z,4.26
2022-12-23T11:52:58.915Z,4.21
2022-12-23T11:54:02.215Z,4.02
2022-12-23T11:55:05.301Z,3.81
2022-12-23T11:56:08.250Z,4.17
2022-12-23T11:57:11.257Z,4.35
2022-12-23T11:58:14.200Z,4.08
2022-12-23T11:59:17.586Z,4.26
2022-12-23T12:00:20.787Z,4.12
2022-12-23T12:01:23.849Z,4.32
2022-12-23T12:02:27.002Z,4.35
2022-12-23T12:03:37.723Z,4.14
2022-12-23T12:04:41.077Z,4.19
2022-12-23T12:05:43.957Z,4.44
2022-12-23T12:06:51.305Z,4.35
2022-12-23T12:07:51.446Z,4.31
2022-12-23T12:08:54.518Z,4.38
2022-12-23T12:09:58.019Z,4.01
2022-12-23T12:11:00.882Z,3.82
2022-12-23T12:12:03.868Z,3.90
2022-12-23T12:13:06.836Z,4.22
2022-12-23T12:14:09.813Z,4.53
2022-12-23T12:15:13.303Z,4.13
2022-12-23T12:16:16.474Z,3.91
2022-12-23T12:17:19.463Z,4.05
2022-12-23T12:18:22.749Z,3.69
2022-12-23T12:19:25.720Z,3.69
2022-12-23T12:20:28.699Z,3.72
2022-12-23T12:21:31.674Z,4.22
2022-12-23T12:22:34.653Z,4.06
2022-12-23T12:23:37.747Z,4.19
2022-12-23T12:24:40.707Z,4.32
2022-12-23T12:25:44.518Z,4.02
2022-12-23T12:26:47.383Z,3.72
2022-12-23T12:27:50.356Z,3.69
2022-12-23T12:28:53.434Z,3.85
2022-12-23T12:29:56.309Z,3.38
2022-12-23T12:30:59.640Z,3.90
2022-12-23T12:32:02.683Z,3.83
2022-12-23T12:33:05.551Z,3.96
2022-12-23T12:34:08.418Z,3.93
2022-12-23T12:35:11.507Z,4.12
2022-12-23T12:36:14.966Z,4.21
2022-12-23T12:37:17.976Z,4.31
2022-12-23T12:38:20.845Z,4.42
2022-12-23T12:39:23.821Z,4.46
2022-12-23T12:40:26.690Z,4.50
2022-12-23T12:41:29.679Z,4.52
2022-12-23T12:42:32.768Z,4.40
2022-12-23T12:43:35.933Z,4.45
2022-12-23T12:44:38.909Z,4.79
2022-12-23T12:45:41.970Z,4.78
2022-12-23T12:46:45.066Z,4.41
2022-12-23T12:47:59.445Z,4.15
2022-12-23T12:48:52.659Z,4.15
2022-12-23T12:49:55.637Z,4.52
2022-12-23T12:50:58.717Z,4.15
2022-12-23T12:52:01.792Z,4.16
2022-12-23T12:53:04.781Z,4.00
2022-12-23T12:54:07.749Z,3.85
2022-12-23T12:55:10.417Z,3.78
2022-12-23T12:56:13.602Z,3.44
2022-12-23T12:57:16.374Z,3.65
2022-12-23T12:58:19.174Z,4.15
2022-12-23T12:59:21.915Z,3.86
2022-12-23T13:00:24.721Z,3.88
2022-12-23T13:01:27.522Z,3.78
2022-12-23T13:02:30.287Z,3.86
2022-12-23T13:03:33.019Z,4.32
2022-12-23T13:04:35.671Z,4.32
2022-12-23T13:05:38.352Z,3.98
2022-12-23T13:06:41.009Z,4.32
2022-12-23T13:07:44.202Z,4.28
2022-12-23T13:08:46.983Z,4.73
2022-12-23T13:09:49.634Z,4.17
2022-12-23T13:10:55.646Z,4.47
2022-12-23T13:11:58.361Z,4.39
2022-12-23T13:13:01.025Z,4.69
2022-12-23T13:14:03.708Z,4.53
2022-12-23T13:15:06.373Z,4.47
2022-12-23T13:16:09.135Z,4.72
2022-12-23T13:17:11.985Z,5.03
2022-12-23T13:18:14.995Z,4.68
2022-12-23T13:19:17.759Z,4.93
2022-12-23T13:20:20.740Z,5.18
2022-12-23T13:21:23.921Z,5.02
2022-12-23T13:22:26.901Z,5.00
2022-12-23T13:23:45.659Z,5.15
2022-12-23T13:24:35.108Z,4.82
2022-12-23T13:25:38.084Z,4.87
2022-12-23T13:26:41.166Z,4.97
2022-12-23T13:27:44.457Z,5.25
2022-12-23T13:28:47.730Z,5.59
2022-12-23T13:29:56.200Z,5.47
2022-12-23T13:30:55.197Z,5.97
2022-12-23T13:31:57.965Z,4.90
2022-12-23T13:33:00.870Z,4.99
2022-12-23T13:34:03.846Z,5.22
2022-12-23T13:35:06.827Z,4.57
2022-12-23T13:36:09.879Z,4.10
2022-12-23T13:37:12.875Z,4.75
2022-12-23T13:38:15.967Z,4.35
2022-12-23T13:39:19.236Z,4.35
2022-12-23T13:40:22.224Z,4.42
2022-12-23T13:41:25.297Z,4.43
2022-12-23T13:42:28.398Z,4.52
2022-12-23T13:43:31.456Z,4.95
2022-12-23T13:44:34.641Z,4.94
2022-12-23T13:45:37.521Z,5.08
2022-12-23T13:46:40.583Z,5.42
2022-12-23T13:47:44.191Z,5.11
2022-12-23T13:48:47.159Z,4.88
2022-12-23T13:49:50.342Z,4.92
2022-12-23T13:50:53.243Z,5.16
2022-12-23T13:51:56.505Z,5.08
2022-12-23T13:52:59.603Z,5.31
2022-12-23T13:54:05.027Z,5.71
2022-12-23T13:55:07.481Z,5.19
2022-12-23T13:56:10.480Z,5.36
2022-12-23T13:57:13.331Z,5.58
2022-12-23T13:58:16.413Z,5.47
2022-12-23T13:59:19.590Z,5.04
2022-12-23T14:00:22.793Z,5.15
2022-12-23T14:01:25.798Z,5.05
2022-12-23T14:02:28.762Z,4.82
2022-12-23T14:03:31.709Z,4.64
2022-12-23T14:04:34.824Z,4.83
2022-12-23T14:05:38.069Z,4.71
2022-12-23T14:06:41.043Z,5.18
2022-12-23T14:07:44.347Z,5.37
2022-12-23T14:08:47.550Z,4.88
2022-12-23T14:09:51.104Z,4.68
2022-12-23T14:10:54.287Z,4.78
2022-12-23T14:12:02.665Z,5.22
2022-12-23T14:13:01.979Z,4.57
2022-12-23T14:14:04.872Z,4.85
2022-12-23T14:15:07.843Z,5.19
2022-12-23T14:16:10.778Z,4.80
2022-12-23T14:17:13.688Z,5.47
2022-12-23T14:18:29.678Z,5.25
2022-12-23T14:19:32.344Z,5.50
2022-12-23T14:20:35.012Z,5.22
2022-12-23T14:21:37.578Z,4.78
2022-12-23T14:22:40.449Z,5.02
2022-12-23T14:23:43.340Z,5.22